createdAt,value
2022-10-15T00:01:35.455Z,66.57
2022-10-15T00:04:37.660Z,68.23
2022-10-15T00:07:41.320Z,67.76
2022-10-15T00:10:43.384Z,68.17
2022-10-15T00:13:45.623Z,67.77
2022-10-15T00:16:47.657Z,68.39
2022-10-15T00:19:49.696Z,67.31
2022-10-15T00:22:51.731Z,68.62
2022-10-15T00:26:35.952Z,68.21
2022-10-15T00:29:38.671Z,67.05
2022-10-15T00:32:40.835Z,68.45
2022-10-15T00:35:42.922Z,67.24
2022-10-15T00:38:45.197Z,67.18
2022-10-15T00:41:47.262Z,67.56
2022-10-15T00:44:58.473Z,66.89
2022-10-15T00:48:00.602Z,67.08
2022-10-15T00:51:02.688Z,66.97
2022-10-15T00:54:04.870Z,67.60
2022-10-15T00:57:07.946Z,66.60
2022-10-15T01:00:12.672Z,67.65
2022-10-15T01:03:14.983Z,67.83
2022-10-15T01:06:17.086Z,70.04
2022-10-15T01:09:19.196Z,71.04
2022-10-15T01:12:42.865Z,70.82
2022-10-15T01:16:04.865Z,70.73
2022-10-15T01:20:00.423Z,72.32
2022-10-15T01:23:29.992Z,72.53
2022-10-15T01:27:10.205Z,70.47
2022-10-15T01:30:21.011Z,69.62
2022-10-15T01:33:53.595Z,69.43
2022-10-15T01:37:37.316Z,69.67
2022-10-15T01:40:50.534Z,70.16
2022-10-15T01:44:24.554Z,70.65
2022-10-15T01:48:12.304Z,70.17
2022-10-15T01:51:14.407Z,70.46
2022-10-15T01:54:18.094Z,70.77
2022-10-15T01:57:20.787Z,70.95
2022-10-15T02:00:23.153Z,72.08
2022-10-15T02:03:25.214Z,71.24
2022-10-15T02:06:39.262Z,71.31
2022-10-15T02:10:05.801Z,72.06
2022-10-15T02:13:22.621Z,70.65
2022-10-15T02:16:54.818Z,71.17
2022-10-15T02:20:07.194Z,70.89
2022-10-15T02:23:19.725Z,70.62
2022-10-15T02:26:25.375Z,70.04
2022-10-15T02:29:31.771Z,71.24
2022-10-15T02:32:34.200Z,70.63
2022-10-15T02:35:36.268Z,71.03
2022-10-15T02:38:42.994Z,70.91
2022-10-15T02:41:45.118Z,70.70
2022-10-15T02:44:48.566Z,71.27
2022-10-15T02:47:50.601Z,70.76
2022-10-15T02:50:53.773Z,71.69
2022-10-15T02:53:56.118Z,71.70
2022-10-15T02:56:58.178Z,72.15
2022-10-15T03:00:00.307Z,71.87
2022-10-15T03:03:02.907Z,71.52
2022-10-15T03:06:06.148Z,71.79
2022-10-15T03:09:08.428Z,72.52
2022-10-15T03:12:10.551Z,72.36
2022-10-15T03:15:12.619Z,73.21
2022-10-15T03:18:14.768Z,73.63
2022-10-15T03:21:16.885Z,73.53
2022-10-15T03:24:19.760Z,75.96
2022-10-15T03:27:22.055Z,80.54
2022-10-15T03:30:24.479Z,81.38
2022-10-15T03:33:27.130Z,81.94
2022-10-15T03:36:30.511Z,82.73
2022-10-15T03:39:32.599Z,81.58
2022-10-15T03:42:37.930Z,82.51
2022-10-15T03:45:40.127Z,80.52
2022-10-15T03:48:52.363Z,80.47
2022-10-15T03:51:55.574Z,80.22
2022-10-15T03:54:59.198Z,81.16
2022-10-15T03:58:01.374Z,81.78
2022-10-15T04:01:10.014Z,81.42
2022-10-15T04:04:13.013Z,81.57
2022-10-15T04:07:15.354Z,81.45
2022-10-15T04:10:17.658Z,81.62
2022-10-15T04:13:19.756Z,81.60
2022-10-15T04:16:21.921Z,81.28
2022-10-15T04:19:24.241Z,81.97
2022-10-15T04:22:34.631Z,82.02
2022-10-15T04:25:37.654Z,81.80
2022-10-15T04:28:39.913Z,83.11
2022-10-15T04:31:42.476Z,83.50
2022-10-15T04:34:46.440Z,84.13
2022-10-15T04:37:49.426Z,85.56
2022-10-15T04:41:07.965Z,85.13
2022-10-15T04:44:24.029Z,85.41
2022-10-15T04:47:30.842Z,85.59
2022-10-15T04:50:44.583Z,86.20
2022-10-15T04:53:56.928Z,87.09
2022-10-15T04:56:59.185Z,86.46
2022-10-15T05:00:02.644Z,86.68
2022-10-15T05:03:07.778Z,87.04
2022-10-15T05:06:21.955Z,86.26
2022-10-15T05:09:29.091Z,86.30
2022-10-15T05:12:33.208Z,86.11
2022-10-15T05:15:35.272Z,85.90
2022-10-15T05:18:41.694Z,86.49
2022-10-15T05:21:44.122Z,86.24
2022-10-15T05:24:57.186Z,87.12
2022-10-15T05:28:07.237Z,86.64
2022-10-15T05:31:18.820Z,88.07
2022-10-15T05:34:21.474Z,87.53
2022-10-15T05:37:29.029Z,86.88
2022-10-15T05:40:31.270Z,88.36
2022-10-15T05:43:54.149Z,88.48
2022-10-15T05:47:00.545Z,88.07
2022-10-15T05:50:03.890Z,88.09
2022-10-15T05:53:15.179Z,88.10
2022-10-15T05:56:20.260Z,88.51
2022-10-15T05:59:22.452Z,88.43
2022-10-15T06:02:24.913Z,87.84
2022-10-15T06:05:27.286Z,88.71
2022-10-15T06:08:30.512Z,88.77
2022-10-15T06:11:32.618Z,89.05
2022-10-15T06:14:34.731Z,88.91
2022-10-15T06:17:37.768Z,87.50
2022-10-15T06:20:40.457Z,87.09
2022-10-15T06:23:42.591Z,89.00
2022-10-15T06:26:44.619Z,88.26
2022-10-15T06:29:51.756Z,88.57
2022-10-15T06:32:53.987Z,87.89
2022-10-15T06:35:56.250Z,88.09
2022-10-15T06:38:58.317Z,87.44
2022-10-15T06:42:00.404Z,88.61
2022-10-15T06:45:15.789Z,87.61
2022-10-15T06:48:20.276Z,87.48
2022-10-15T06:51:22.331Z,86.19
2022-10-15T06:54:25.755Z,87.24
2022-10-15T06:57:28.518Z,86.68
2022-10-15T07:03:42.640Z,87.07
2022-10-15T07:06:44.718Z,87.20
2022-10-15T07:09:47.569Z,87.90
2022-10-15T07:12:49.674Z,85.95
2022-10-15T07:15:54.141Z,85.87
2022-10-15T07:18:56.362Z,87.47
2022-10-15T07:21:58.407Z,86.95
2022-10-15T07:25:00.446Z,85.52
2022-10-15T07:28:02.511Z,85.43
2022-10-15T07:31:06.246Z,83.86
2022-10-15T07:34:08.398Z,84.08
2022-10-15T07:37:10.414Z,84.12
2022-10-15T07:40:12.834Z,84.92
2022-10-15T07:43:16.753Z,85.72
2022-10-15T07:46:18.817Z,85.06
2022-10-15T07:49:20.881Z,84.75
2022-10-15T07:52:23.236Z,84.13
2022-10-15T07:55:25.544Z,84.60
2022-10-15T07:58:28.702Z,85.08
2022-10-15T08:01:32.350Z,83.49
2022-10-15T08:04:35.167Z,84.29
2022-10-15T08:07:37.505Z,82.94
2022-10-15T08:10:47.178Z,82.65
2022-10-15T08:13:49.461Z,81.61
2022-10-15T08:16:51.539Z,81.84
2022-10-15T08:19:53.662Z,81.20
2022-10-15T08:22:55.749Z,78.81
2022-10-15T08:25:59.512Z,80.37
2022-10-15T08:29:01.902Z,80.11
2022-10-15T08:32:04.234Z,81.36
2022-10-15T08:35:07.221Z,81.55
2022-10-15T08:38:12.607Z,80.33
2022-10-15T08:41:56.439Z,80.57
2022-10-15T08:45:01.218Z,81.26
2022-10-15T08:48:12.838Z,83.12
2022-10-15T08:51:26.742Z,83.65
2022-10-15T08:54:28.747Z,82.90
2022-10-15T08:57:40.323Z,81.73
2022-10-15T09:00:58.438Z,82.14
2022-10-15T09:07:43.485Z,77.86
2022-10-15T09:10:53.183Z,77.12
2022-10-15T09:13:55.383Z,76.19
2022-10-15T09:16:58.439Z,72.91
2022-10-15T09:20:05.633Z,74.27
2022-10-15T09:23:16.541Z,72.97
2022-10-15T09:26:35.957Z,72.92
2022-10-15T09:29:46.753Z,73.18
2022-10-15T09:33:25.250Z,73.39
2022-10-15T09:36:51.011Z,73.40
2022-10-15T09:40:28.479Z,71.02
2022-10-15T09:43:38.082Z,70.77
2022-10-15T09:46:48.526Z,71.25
2022-10-15T09:49:50.758Z,70.36
2022-10-15T09:53:27.437Z,70.59
2022-10-15T09:56:55.475Z,71.54
2022-10-15T10:00:01.361Z,71.69
2022-10-15T10:03:11.765Z,70.41
2022-10-15T10:06:14.457Z,69.90
2022-10-15T10:09:25.986Z,70.28
2022-10-15T10:12:35.193Z,68.76
2022-10-15T10:15:41.248Z,67.88
2022-10-15T10:18:50.479Z,67.06
2022-10-15T10:21:52.558Z,68.37
2022-10-15T10:24:54.601Z,67.31
2022-10-15T10:28:14.531Z,65.28
2022-10-15T10:31:16.615Z,67.63
2022-10-15T10:34:29.980Z,65.23
2022-10-15T10:37:43.077Z,65.75
2022-10-15T10:40:58.062Z,66.31
2022-10-15T10:44:00.091Z,64.80
2022-10-15T10:47:18.026Z,63.04
2022-10-15T10:50:40.779Z,64.01
2022-10-15T10:54:05.369Z,63.08
2022-10-15T10:57:11.712Z,60.34
2022-10-15T11:00:24.624Z,60.19
2022-10-15T11:03:38.683Z,61.37
2022-10-15T11:07:04.946Z,60.72
2022-10-15T11:10:46.702Z,58.54
2022-10-15T11:14:17.368Z,57.29
2022-10-15T11:17:59.285Z,58.11
2022-10-15T11:21:35.311Z,57.77
2022-10-15T11:25:06.975Z,58.49
2022-10-15T11:28:51.100Z,57.02
2022-10-15T11:32:54.440Z,56.58
2022-10-15T11:36:29.867Z,55.96
2022-10-15T11:39:35.300Z,54.45
2022-10-15T11:42:58.372Z,53.13
2022-10-15T11:46:30.171Z,52.66
2022-10-15T11:49:41.175Z,56.29
2022-10-15T11:53:32.361Z,57.14
2022-10-15T11:56:53.643Z,55.86
2022-10-15T12:00:10.056Z,53.64
2022-10-15T12:03:24.964Z,58.55
2022-10-15T12:06:30.457Z,58.72
2022-10-15T12:09:37.118Z,58.70
2022-10-15T12:13:14.847Z,59.57
2022-10-15T12:16:35.596Z,59.59
2022-10-15T12:20:18.270Z,58.63
2022-10-15T12:23:37.282Z,58.74
2022-10-15T12:26:39.426Z,58.48
2022-10-15T12:29:41.523Z,57.98
2022-10-15T12:32:48.711Z,56.86
2022-10-15T12:36:01.580Z,57.14
2022-10-15T12:39:16.080Z,58.76
2022-10-15T12:42:37.248Z,57.36
2022-10-15T12:45:57.628Z,54.45
2022-10-15T12:48:59.666Z,52.58
2022-10-15T12:52:02.443Z,54.25
2022-10-15T12:55:28.419Z,53.79
2022-10-15T12:58:35.128Z,57.26
2022-10-15T13:01:43.286Z,55.43
2022-10-15T13:04:45.612Z,57.12
2022-10-15T13:07:47.638Z,58.00
2022-10-15T13:10:55.335Z,59.31
2022-10-15T13:14:32.010Z,59.12
2022-10-15T13:17:34.704Z,59.12
2022-10-15T13:20:38.192Z,57.33
2022-10-15T13:23:49.083Z,59.58
2022-10-15T13:26:51.656Z,58.65
2022-10-15T13:30:17.345Z,59.43
2022-10-15T13:33:19.469Z,60.76
2022-10-15T13:36:33.134Z,61.98
2022-10-15T13:39:39.617Z,61.57
2022-10-15T13:42:41.677Z,60.99
2022-10-15T13:45:48.542Z,61.49
2022-10-15T13:48:50.581Z,61.32
2022-10-15T13:51:53.206Z,61.96
2022-10-15T13:54:55.219Z,61.44
2022-10-15T13:58:04.067Z,64.10
2022-10-15T14:01:08.914Z,67.28
2022-10-15T14:04:19.212Z,69.00
2022-10-15T14:07:27.655Z,71.05
2022-10-15T14:10:30.165Z,73.34
2022-10-15T14:13:32.267Z,76.70
2022-10-15T14:16:45.330Z,78.14
2022-10-15T14:20:08.235Z,77.87
2022-10-15T14:23:20.487Z,75.50
2022-10-15T14:26:24.355Z,75.88
2022-10-15T14:29:28.826Z,74.46
2022-10-15T14:32:53.887Z,74.41
2022-10-15T14:36:19.592Z,74.30
2022-10-15T14:39:35.710Z,74.67
2022-10-15T14:42:44.625Z,75.76
2022-10-15T14:45:52.684Z,77.08
2022-10-15T14:48:54.809Z,77.76
2022-10-15T14:52:04.727Z,79.24
2022-10-15T14:55:33.328Z,79.11
2022-10-15T14:58:35.408Z,78.62
2022-10-15T15:01:37.479Z,76.99
2022-10-15T15:05:06.895Z,76.63
2022-10-15T15:08:09.215Z,76.26
2022-10-15T15:11:20.923Z,75.23
2022-10-15T15:14:26.183Z,64.83
2022-10-15T15:17:29.511Z,55.71
2022-10-15T15:20:31.607Z,60.30
2022-10-15T15:23:33.724Z,57.89
2022-10-15T15:26:35.749Z,56.88
2022-10-15T15:29:37.784Z,61.23
2022-10-15T15:32:39.836Z,57.68
2022-10-15T15:35:52.454Z,50.18
2022-10-15T15:38:58.625Z,56.16
2022-10-15T15:42:00.645Z,55.15
2022-10-15T15:45:02.816Z,57.38
2022-10-15T15:48:05.318Z,54.44
2022-10-15T15:51:27.678Z,56.91
2022-10-15T15:54:29.722Z,56.49
2022-10-15T15:57:31.817Z,59.09
2022-10-15T16:00:33.900Z,60.72
2022-10-15T16:03:36.039Z,62.46
2022-10-15T16:06:42.357Z,62.86
2022-10-15T16:09:44.587Z,65.17
2022-10-15T16:12:46.648Z,65.48
2022-10-15T16:15:48.726Z,66.51
2022-10-15T16:18:51.028Z,66.46
2022-10-15T16:21:53.053Z,66.47
2022-10-15T16:24:56.617Z,68.45
2022-10-15T16:28:01.824Z,68.04
2022-10-15T16:31:30.360Z,67.83
2022-10-15T16:34:32.678Z,68.23
2022-10-15T16:37:34.818Z,67.53
2022-10-15T16:40:37.458Z,67.85
2022-10-15T16:43:39.556Z,66.50
2022-10-15T16:46:41.626Z,67.58
2022-10-15T16:49:43.677Z,67.81
2022-10-15T16:52:46.229Z,67.76
2022-10-15T16:55:49.838Z,67.72
2022-10-15T16:58:52.054Z,66.83
2022-10-15T17:01:54.592Z,67.33
2022-10-15T17:04:56.721Z,67.96
2022-10-15T17:07:58.799Z,67.89
2022-10-15T17:11:00.854Z,68.19
2022-10-15T17:14:06.311Z,67.63
2022-10-15T17:17:08.418Z,69.03
2022-10-15T17:20:12.091Z,69.23
2022-10-15T17:23:14.861Z,68.86
2022-10-15T17:26:19.573Z,69.20
2022-10-15T17:29:25.406Z,69.10
2022-10-15T17:32:28.631Z,68.98
2022-10-15T17:35:31.546Z,68.67
2022-10-15T17:38:33.612Z,68.51
2022-10-15T17:41:35.957Z,69.40
2022-10-15T17:44:38.028Z,69.27
2022-10-15T17:47:40.092Z,69.75
2022-10-15T17:50:45.255Z,68.84
2022-10-15T17:53:50.767Z,68.39
2022-10-15T17:56:52.848Z,68.31
2022-10-15T17:59:54.874Z,67.18
2022-10-15T18:02:57.936Z,68.02
2022-10-15T18:06:13.581Z,67.38
2022-10-15T18:09:15.687Z,67.43
2022-10-15T18:12:17.831Z,67.41
2022-10-15T18:15:19.907Z,66.61
2022-10-15T18:18:22.077Z,67.87
2022-10-15T18:21:24.986Z,68.81
2022-10-15T18:24:27.154Z,68.67
2022-10-15T18:27:29.180Z,68.07
2022-10-15T18:30:31.403Z,69.33
2022-10-15T18:33:35.281Z,69.52
2022-10-15T18:36:41.429Z,69.44
2022-10-15T18:39:43.500Z,68.72
2022-10-15T18:42:47.766Z,69.59
2022-10-15T18:45:55.238Z,69.86
2022-10-15T18:48:57.725Z,69.06
2022-10-15T18:52:10.617Z,69.81
2022-10-15T18:55:23.355Z,69.50
2022-10-15T18:58:25.449Z,68.82
2022-10-15T19:01:39.048Z,69.72
2022-10-15T19:04:41.247Z,69.95
2022-10-15T19:07:43.375Z,69.66
2022-10-15T19:10:45.518Z,70.57
2022-10-15T19:13:47.670Z,70.08
2022-10-15T19:16:50.024Z,70.26
2022-10-15T19:19:52.162Z,70.67
2022-10-15T19:22:54.287Z,70.69
2022-10-15T19:25:57.779Z,72.21
2022-10-15T19:28:59.970Z,71.99
2022-10-15T19:32:03.841Z,72.51
2022-10-15T19:35:06.679Z,72.48
2022-10-15T19:38:08.808Z,73.75
2022-10-15T19:41:10.919Z,72.25
2022-10-15T19:44:14.490Z,73.27
2022-10-15T19:47:20.389Z,72.60
2022-10-15T19:50:22.499Z,73.33
2022-10-15T19:53:25.588Z,72.87
2022-10-15T19:56:28.270Z,73.34
2022-10-15T19:59:30.374Z,73.16
2022-10-15T20:02:32.520Z,73.93
2022-10-15T20:05:34.608Z,73.53
2022-10-15T20:08:36.861Z,74.46
2022-10-15T20:11:39.002Z,74.85
2022-10-15T20:14:41.078Z,74.74
2022-10-15T20:17:43.464Z,75.17
2022-10-15T20:20:46.421Z,75.34
2022-10-15T20:23:48.563Z,75.27
2022-10-15T20:26:51.027Z,74.38
2022-10-15T20:29:53.130Z,74.36
2022-10-15T20:32:55.182Z,74.34
2022-10-15T20:36:02.905Z,74.09
2022-10-15T20:39:04.892Z,73.72
2022-10-15T20:42:07.600Z,73.41
2022-10-15T20:45:14.434Z,73.57
2022-10-15T20:48:22.267Z,73.71
2022-10-15T20:51:27.654Z,73.04
2022-10-15T20:54:30.844Z,74.22
2022-10-15T20:57:32.887Z,76.03
2022-10-15T21:00:34.919Z,77.93
2022-10-15T21:03:37.173Z,79.61
2022-10-15T21:06:39.446Z,79.87
2022-10-15T21:09:41.648Z,78.67
2022-10-15T21:12:43.742Z,79.01
2022-10-15T21:15:45.807Z,78.61
2022-10-15T21:18:48.341Z,77.57
2022-10-15T21:21:50.429Z,77.41
2022-10-15T21:24:52.474Z,76.82
2022-10-15T21:27:54.490Z,77.72
2022-10-15T21:30:56.534Z,78.42
2022-10-15T21:33:58.577Z,77.80
2022-10-15T21:37:00.613Z,78.08
2022-10-15T21:40:03.408Z,78.19
2022-10-15T21:43:05.658Z,77.52
2022-10-15T21:46:12.363Z,77.28
2022-10-15T21:49:14.413Z,77.34
2022-10-15T21:52:16.443Z,77.25
2022-10-15T21:55:18.480Z,76.75
2022-10-15T21:58:22.141Z,76.76
2022-10-15T22:01:26.465Z,75.51
2022-10-15T22:04:29.385Z,75.09
2022-10-15T22:07:31.389Z,74.48
2022-10-15T22:10:35.147Z,74.22
2022-10-15T22:13:37.294Z,74.43
2022-10-15T22:16:40.959Z,73.98
2022-10-15T22:19:42.994Z,75.36
2022-10-15T22:22:45.054Z,75.53
2022-10-15T22:25:47.310Z,76.44
2022-10-15T22:28:49.525Z,76.95
2022-10-15T22:31:51.796Z,76.59
2022-10-15T22:34:53.859Z,76.83
2022-10-15T22:37:58.064Z,77.21
2022-10-15T22:41:01.497Z,76.77
2022-10-15T22:44:03.610Z,77.48
2022-10-15T22:47:05.703Z,77.65
2022-10-15T22:50:08.594Z,78.07
2022-10-15T22:53:10.851Z,77.97
2022-10-15T22:56:17.857Z,78.39
2022-10-15T22:59:20.126Z,79.51
2022-10-15T23:02:22.230Z,79.35
2022-10-15T23:05:24.314Z,79.61
2022-10-15T23:08:26.329Z,79.23
2022-10-15T23:11:31.095Z,78.72
2022-10-15T23:14:33.124Z,79.22
2022-10-15T23:17:35.203Z,78.85
2022-10-15T23:20:40.338Z,80.25
2022-10-15T23:23:43.353Z,81.24
2022-10-15T23:26:45.474Z,82.55
2022-10-15T23:29:53.506Z,83.51
2022-10-15T23:33:03.985Z,84.26
2022-10-15T23:36:06.175Z,83.34
2022-10-15T23:39:08.202Z,82.89
2022-10-15T23:42:10.246Z,82.23
2022-10-15T23:45:12.255Z,81.64
2022-10-15T23:48:14.390Z,82.09
2022-10-15T23:51:29.247Z,81.56
2022-10-15T23:54:31.323Z,81.32
2022-10-15T23:57:33.352Z,81.06
